ASA660 KSEA-KMSO
Flight info
| Callsign | ASA660 |
|---|---|
| Flight time | 1h 5m |
| Altitude | 35000 |
| Route | MONTN2 SEA ZADON ZELAK ZIRAN ZAXBY BLOWS MSO |
| Aircraft | B38M/M-SDE1FGHILORVWXY/HB1 |
Departure
| Time | 2026-04-25 19:52 |
|---|---|
| Airport | Seattle–Tacoma International Airport (KSEA) |
Arrival
| Time | 2026-04-25 20:57 |
|---|---|
| Airport | Missoula Montana Airport (KMSO) |
| Time | Latitude | Longitude | Altitude | Speed | Heading |
|---|---|---|---|---|---|
| 2026-04-25 19:37 | 47.44753 | -122.30139 | 412 ft | 0 kts | 336° |
| 2026-04-25 19:43 | 47.44743 | -122.30132 | 407 ft | 4 kts | 334° |
| 2026-04-25 19:43 | 47.44721 | -122.30111 | 405 ft | 4 kts | 304° |
| 2026-04-25 19:43 | 47.44718 | -122.30088 | 405 ft | 2 kts | 230° |
| 2026-04-25 19:43 | 47.44719 | -122.30086 | 405 ft | 0 kts | 230° |
| 2026-04-25 19:45 | 47.44718 | -122.30089 | 405 ft | 2 kts | 230° |
| 2026-04-25 19:45 | 47.44704 | -122.30121 | 410 ft | 6 kts | 245° |
| 2026-04-25 19:46 | 47.44698 | -122.30199 | 409 ft | 10 kts | 281° |
| 2026-04-25 19:46 | 47.44737 | -122.30290 | 410 ft | 11 kts | 309° |
| 2026-04-25 19:46 | 47.44791 | -122.30385 | 411 ft | 13 kts | 311° |
| 2026-04-25 19:46 | 47.44822 | -122.30518 | 410 ft | 16 kts | 257° |
| 2026-04-25 19:47 | 47.44743 | -122.30623 | 405 ft | 17 kts | 190° |
| 2026-04-25 19:47 | 47.44626 | -122.30630 | 402 ft | 17 kts | 180° |
| 2026-04-25 19:47 | 47.44504 | -122.30632 | 393 ft | 18 kts | 180° |
| 2026-04-25 19:47 | 47.44371 | -122.30633 | 395 ft | 20 kts | 180° |
| 2026-04-25 19:48 | 47.44228 | -122.30634 | 392 ft | 22 kts | 181° |
| 2026-04-25 19:48 | 47.44074 | -122.30635 | 388 ft | 20 kts | 180° |
| 2026-04-25 19:48 | 47.43926 | -122.30637 | 384 ft | 23 kts | 180° |
| 2026-04-25 19:48 | 47.43761 | -122.30639 | 379 ft | 23 kts | 179° |
| 2026-04-25 19:49 | 47.43622 | -122.30614 | 374 ft | 18 kts | 153° |
| 2026-04-25 19:49 | 47.43584 | -122.30582 | 374 ft | 19 kts | 152° |
| 2026-04-25 19:49 | 47.43381 | -122.30561 | 369 ft | 16 kts | 180° |
| 2026-04-25 19:49 | 47.43269 | -122.30563 | 368 ft | 17 kts | 182° |
| 2026-04-25 19:50 | 47.43180 | -122.30645 | 363 ft | 4 kts | 243° |
| 2026-04-25 19:50 | 47.43161 | -122.30700 | 360 ft | 8 kts | 242° |
| 2026-04-25 19:50 | 47.43135 | -122.30778 | 362 ft | 6 kts | 255° |
| 2026-04-25 19:51 | 47.43151 | -122.30807 | 364 ft | 3 kts | 355° |
| 2026-04-25 19:51 | 47.43170 | -122.30806 | 369 ft | 6 kts | 1° |
| 2026-04-25 19:51 | 47.43353 | -122.30804 | 363 ft | 58 kts | 0° |
| 2026-04-25 19:51 | 47.43970 | -122.30797 | 385 ft | 116 kts | 0° |
| 2026-04-25 19:52 | 47.44942 | -122.30789 | 411 ft | 161 kts | 360° |
| 2026-04-25 19:52 | 47.46112 | -122.30799 | 810 ft | 171 kts | 357° |
| 2026-04-25 19:52 | 47.47337 | -122.30805 | 1446 ft | 178 kts | 358° |
| 2026-04-25 19:52 | 47.48575 | -122.30809 | 2169 ft | 183 kts | 360° |
| 2026-04-25 19:53 | 47.49956 | -122.30813 | 2635 ft | 212 kts | 358° |
| 2026-04-25 19:53 | 47.51480 | -122.30855 | 3355 ft | 227 kts | 358° |
| 2026-04-25 19:53 | 47.53121 | -122.30894 | 3994 ft | 245 kts | 359° |
| 2026-04-25 19:53 | 47.54885 | -122.30930 | 4732 ft | 257 kts | 359° |
| 2026-04-25 19:54 | 47.56660 | -122.30915 | 5790 ft | 256 kts | 6° |
| 2026-04-25 19:54 | 47.58301 | -122.29922 | 6720 ft | 260 kts | 38° |
| 2026-04-25 19:54 | 47.59451 | -122.27825 | 7585 ft | 269 kts | 59° |
| 2026-04-25 19:54 | 47.59911 | -122.26104 | 8171 ft | 274 kts | 73° |
| 2026-04-25 19:55 | 47.59918 | -122.22320 | 9326 ft | 285 kts | 94° |
| 2026-04-25 19:55 | 47.59681 | -122.19380 | 10143 ft | 289 kts | 94° |
| 2026-04-25 19:55 | 47.59461 | -122.16348 | 10660 ft | 305 kts | 94° |
| 2026-04-25 19:55 | 47.59239 | -122.13159 | 11185 ft | 318 kts | 94° |
| 2026-04-25 19:56 | 47.59004 | -122.09869 | 11978 ft | 322 kts | 94° |
| 2026-04-25 19:56 | 47.58757 | -122.06552 | 12796 ft | 327 kts | 94° |
| 2026-04-25 19:56 | 47.58503 | -122.03184 | 13663 ft | 331 kts | 94° |
| 2026-04-25 19:56 | 47.58243 | -121.99770 | 14432 ft | 336 kts | 94° |
| 2026-04-25 19:57 | 47.57978 | -121.96312 | 15212 ft | 340 kts | 94° |
| 2026-04-25 19:57 | 47.57709 | -121.92818 | 16026 ft | 344 kts | 94° |
| 2026-04-25 19:57 | 47.57433 | -121.89269 | 16812 ft | 349 kts | 94° |
| 2026-04-25 19:57 | 47.57154 | -121.85677 | 17563 ft | 354 kts | 94° |
| 2026-04-25 19:58 | 47.56869 | -121.82040 | 18315 ft | 358 kts | 94° |
| 2026-04-25 19:58 | 47.56578 | -121.78353 | 18941 ft | 362 kts | 94° |
| 2026-04-25 19:58 | 47.56287 | -121.74629 | 19618 ft | 364 kts | 92° |
| 2026-04-25 19:58 | 47.56222 | -121.70880 | 20252 ft | 366 kts | 88° |
| 2026-04-25 19:59 | 47.56181 | -121.67099 | 20904 ft | 369 kts | 88° |
| 2026-04-25 19:59 | 47.56126 | -121.63287 | 21541 ft | 372 kts | 88° |
| 2026-04-25 19:59 | 47.56060 | -121.59477 | 22147 ft | 376 kts | 88° |
| 2026-04-25 19:59 | 47.55989 | -121.55596 | 22745 ft | 379 kts | 88° |
| 2026-04-25 20:00 | 47.55936 | -121.51683 | 23339 ft | 382 kts | 88° |
| 2026-04-25 20:00 | 47.55900 | -121.49019 | 23719 ft | 384 kts | 88° |
| 2026-04-25 20:00 | 47.55825 | -121.43772 | 24439 ft | 386 kts | 88° |
| 2026-04-25 20:00 | 47.55767 | -121.39788 | 24970 ft | 388 kts | 88° |
| 2026-04-25 20:01 | 47.55644 | -121.31748 | 25988 ft | 393 kts | 89° |
| 2026-04-25 20:01 | 47.55580 | -121.27694 | 26477 ft | 395 kts | 89° |
| 2026-04-25 20:01 | 47.55515 | -121.23618 | 26958 ft | 397 kts | 89° |
| 2026-04-25 20:02 | 47.55447 | -121.19522 | 27434 ft | 399 kts | 89° |
| 2026-04-25 20:02 | 47.55378 | -121.15397 | 27865 ft | 402 kts | 89° |
| 2026-04-25 20:02 | 47.55306 | -121.11240 | 28242 ft | 406 kts | 89° |
| 2026-04-25 20:02 | 47.55233 | -121.07104 | 28675 ft | 408 kts | 89° |
| 2026-04-25 20:03 | 47.55158 | -121.02891 | 29110 ft | 410 kts | 89° |
| 2026-04-25 20:03 | 47.55080 | -120.98654 | 29546 ft | 413 kts | 89° |
| 2026-04-25 20:03 | 47.55001 | -120.94385 | 29954 ft | 415 kts | 89° |
| 2026-04-25 20:03 | 47.54919 | -120.90101 | 30304 ft | 418 kts | 89° |
| 2026-04-25 20:04 | 47.54836 | -120.85789 | 30617 ft | 421 kts | 89° |
| 2026-04-25 20:04 | 47.54749 | -120.81446 | 30917 ft | 423 kts | 89° |
| 2026-04-25 20:04 | 47.54661 | -120.77079 | 31247 ft | 426 kts | 89° |
| 2026-04-25 20:04 | 47.54573 | -120.72741 | 31538 ft | 429 kts | 89° |
| 2026-04-25 20:05 | 47.54480 | -120.68306 | 31858 ft | 431 kts | 89° |
| 2026-04-25 20:05 | 47.54384 | -120.63859 | 32215 ft | 433 kts | 89° |
| 2026-04-25 20:05 | 47.54287 | -120.59389 | 32540 ft | 435 kts | 89° |
| 2026-04-25 20:05 | 47.54189 | -120.54909 | 32953 ft | 435 kts | 89° |
| 2026-04-25 20:06 | 47.54089 | -120.50433 | 33357 ft | 435 kts | 89° |
| 2026-04-25 20:06 | 47.53987 | -120.45954 | 33757 ft | 435 kts | 89° |
| 2026-04-25 20:06 | 47.53899 | -120.41479 | 34110 ft | 435 kts | 89° |
| 2026-04-25 20:06 | 47.53840 | -120.37001 | 34388 ft | 436 kts | 89° |
| 2026-04-25 20:07 | 47.53776 | -120.32514 | 34665 ft | 436 kts | 89° |
| 2026-04-25 20:07 | 47.53709 | -120.28009 | 34899 ft | 438 kts | 89° |
| 2026-04-25 20:07 | 47.53569 | -120.18984 | 34929 ft | 437 kts | 89° |
| 2026-04-25 20:08 | 47.53422 | -120.10004 | 34937 ft | 437 kts | 89° |
| 2026-04-25 20:08 | 47.53268 | -120.01004 | 34940 ft | 437 kts | 89° |
| 2026-04-25 20:09 | 47.53107 | -119.92017 | 34943 ft | 437 kts | 89° |
| 2026-04-25 20:09 | 47.52940 | -119.83086 | 34941 ft | 437 kts | 89° |
| 2026-04-25 20:10 | 47.52765 | -119.74107 | 34937 ft | 437 kts | 89° |
| 2026-04-25 20:10 | 47.52582 | -119.65107 | 34946 ft | 437 kts | 90° |
| 2026-04-25 20:11 | 47.52393 | -119.56124 | 34935 ft | 436 kts | 90° |
| 2026-04-25 20:11 | 47.52197 | -119.47142 | 34944 ft | 437 kts | 90° |
| 2026-04-25 20:12 | 47.51995 | -119.38217 | 34953 ft | 437 kts | 90° |
| 2026-04-25 20:12 | 47.51820 | -119.30698 | 34953 ft | 436 kts | 90° |
| 2026-04-25 20:13 | 47.51568 | -119.20255 | 34963 ft | 437 kts | 90° |
| 2026-04-25 20:13 | 47.51343 | -119.11255 | 34979 ft | 437 kts | 90° |
| 2026-04-25 20:14 | 47.51113 | -119.02304 | 34970 ft | 437 kts | 90° |
| 2026-04-25 20:14 | 47.50874 | -118.93300 | 34970 ft | 437 kts | 90° |
| 2026-04-25 20:15 | 47.50629 | -118.84309 | 34964 ft | 437 kts | 90° |
| 2026-04-25 20:15 | 47.50376 | -118.75311 | 34961 ft | 437 kts | 90° |
| 2026-04-25 20:16 | 47.50117 | -118.66354 | 34961 ft | 438 kts | 90° |
| 2026-04-25 20:16 | 47.49850 | -118.57357 | 34955 ft | 438 kts | 90° |
| 2026-04-25 20:17 | 47.49576 | -118.48340 | 34945 ft | 438 kts | 91° |
| 2026-04-25 20:17 | 47.49295 | -118.39342 | 34947 ft | 438 kts | 91° |
| 2026-04-25 20:18 | 47.49008 | -118.30402 | 34937 ft | 438 kts | 91° |
| 2026-04-25 20:18 | 47.48713 | -118.21403 | 34942 ft | 438 kts | 91° |
| 2026-04-25 20:19 | 47.48410 | -118.12382 | 34942 ft | 438 kts | 91° |
| 2026-04-25 20:19 | 47.48101 | -118.03383 | 34934 ft | 438 kts | 91° |
| 2026-04-25 20:20 | 47.47786 | -117.94431 | 34929 ft | 438 kts | 91° |
| 2026-04-25 20:20 | 47.47463 | -117.85410 | 34926 ft | 438 kts | 91° |
| 2026-04-25 20:21 | 47.47135 | -117.76409 | 34926 ft | 438 kts | 91° |
| 2026-04-25 20:21 | 47.46801 | -117.67411 | 34929 ft | 438 kts | 91° |
| 2026-04-25 20:22 | 47.46554 | -117.61454 | 34924 ft | 439 kts | 94° |
| 2026-04-25 20:22 | 47.45755 | -117.49486 | 34944 ft | 440 kts | 94° |
| 2026-04-25 20:23 | 47.45168 | -117.40447 | 34942 ft | 440 kts | 94° |
| 2026-04-25 20:23 | 47.44578 | -117.31438 | 34947 ft | 440 kts | 94° |
| 2026-04-25 20:24 | 47.43983 | -117.22465 | 34952 ft | 440 kts | 94° |
| 2026-04-25 20:24 | 47.43377 | -117.13440 | 34963 ft | 441 kts | 94° |
| 2026-04-25 20:25 | 47.42766 | -117.04435 | 34977 ft | 441 kts | 94° |
| 2026-04-25 20:25 | 47.42151 | -116.95477 | 34981 ft | 441 kts | 94° |
| 2026-04-25 20:26 | 47.41525 | -116.86468 | 34982 ft | 441 kts | 94° |
| 2026-04-25 20:26 | 47.40891 | -116.77449 | 34983 ft | 442 kts | 94° |
| 2026-04-25 20:27 | 47.40248 | -116.68410 | 34984 ft | 443 kts | 94° |
| 2026-04-25 20:27 | 47.39598 | -116.59363 | 34982 ft | 443 kts | 94° |
| 2026-04-25 20:28 | 47.38941 | -116.50320 | 34979 ft | 443 kts | 94° |
| 2026-04-25 20:28 | 47.38277 | -116.41288 | 34973 ft | 443 kts | 95° |
| 2026-04-25 20:29 | 47.37605 | -116.32240 | 34975 ft | 443 kts | 95° |
| 2026-04-25 20:29 | 47.36925 | -116.23190 | 34976 ft | 443 kts | 95° |
| 2026-04-25 20:30 | 47.36239 | -116.14153 | 34979 ft | 443 kts | 95° |
| 2026-04-25 20:30 | 47.35549 | -116.05161 | 34977 ft | 445 kts | 95° |
| 2026-04-25 20:31 | 47.34845 | -115.96077 | 34963 ft | 446 kts | 95° |
| 2026-04-25 20:31 | 47.34132 | -115.86976 | 34965 ft | 445 kts | 95° |
| 2026-04-25 20:32 | 47.33415 | -115.77911 | 34975 ft | 445 kts | 95° |
| 2026-04-25 20:32 | 47.32688 | -115.68829 | 34978 ft | 446 kts | 95° |
| 2026-04-25 20:33 | 47.31961 | -115.59820 | 34982 ft | 445 kts | 95° |
| 2026-04-25 20:33 | 47.31593 | -115.55304 | 34753 ft | 439 kts | 95° |
| 2026-04-25 20:33 | 47.31470 | -115.53790 | 34559 ft | 439 kts | 95° |
| 2026-04-25 20:34 | 47.30858 | -115.46324 | 33226 ft | 444 kts | 95° |
| 2026-04-25 20:34 | 47.30483 | -115.41786 | 32323 ft | 448 kts | 95° |
| 2026-04-25 20:34 | 47.30104 | -115.37227 | 31578 ft | 448 kts | 95° |
| 2026-04-25 20:34 | 47.29730 | -115.32739 | 31038 ft | 444 kts | 95° |
| 2026-04-25 20:35 | 47.29353 | -115.28243 | 30568 ft | 439 kts | 95° |
| 2026-04-25 20:35 | 47.28981 | -115.23807 | 30013 ft | 436 kts | 95° |
| 2026-04-25 20:35 | 47.28607 | -115.19377 | 29345 ft | 433 kts | 95° |
| 2026-04-25 20:35 | 47.28235 | -115.14985 | 28803 ft | 429 kts | 95° |
| 2026-04-25 20:36 | 47.27865 | -115.10636 | 28255 ft | 425 kts | 95° |
| 2026-04-25 20:36 | 47.27502 | -115.06380 | 27735 ft | 422 kts | 95° |
| 2026-04-25 20:36 | 47.27100 | -115.02116 | 27165 ft | 420 kts | 101° |
| 2026-04-25 20:36 | 47.26048 | -114.98092 | 26514 ft | 422 kts | 117° |
| 2026-04-25 20:37 | 47.24640 | -114.94316 | 26052 ft | 418 kts | 117° |
| 2026-04-25 20:37 | 47.23240 | -114.90583 | 25560 ft | 416 kts | 118° |
| 2026-04-25 20:37 | 47.21824 | -114.86875 | 25042 ft | 414 kts | 118° |
| 2026-04-25 20:37 | 47.20400 | -114.83192 | 24544 ft | 413 kts | 119° |
| 2026-04-25 20:38 | 47.18993 | -114.79583 | 24026 ft | 411 kts | 119° |
| 2026-04-25 20:38 | 47.17570 | -114.75940 | 23510 ft | 410 kts | 120° |
| 2026-04-25 20:38 | 47.16149 | -114.72311 | 22927 ft | 409 kts | 120° |
| 2026-04-25 20:38 | 47.14736 | -114.68706 | 22435 ft | 405 kts | 120° |
| 2026-04-25 20:39 | 47.13334 | -114.65134 | 21961 ft | 402 kts | 120° |
| 2026-04-25 20:39 | 47.11941 | -114.61590 | 21482 ft | 399 kts | 120° |
| 2026-04-25 20:39 | 47.10557 | -114.58077 | 21031 ft | 396 kts | 120° |
| 2026-04-25 20:39 | 47.10089 | -114.56889 | 20868 ft | 396 kts | 120° |
| 2026-04-25 20:40 | 47.07812 | -114.51116 | 20112 ft | 392 kts | 120° |
| 2026-04-25 20:40 | 47.06444 | -114.47654 | 19650 ft | 390 kts | 121° |
| 2026-04-25 20:40 | 47.05084 | -114.44215 | 19217 ft | 388 kts | 121° |
| 2026-04-25 20:40 | 47.03748 | -114.40845 | 18788 ft | 385 kts | 121° |
| 2026-04-25 20:41 | 47.02401 | -114.37448 | 18330 ft | 383 kts | 121° |
| 2026-04-25 20:41 | 47.01059 | -114.34069 | 17834 ft | 382 kts | 121° |
| 2026-04-25 20:41 | 46.99741 | -114.30752 | 17406 ft | 378 kts | 121° |
| 2026-04-25 20:41 | 46.98423 | -114.27442 | 16991 ft | 374 kts | 121° |
| 2026-04-25 20:42 | 46.97554 | -114.25263 | 16712 ft | 371 kts | 121° |
| 2026-04-25 20:42 | 46.96255 | -114.22005 | 16296 ft | 367 kts | 121° |
| 2026-04-25 20:42 | 46.94971 | -114.18791 | 15879 ft | 364 kts | 121° |
| 2026-04-25 20:42 | 46.93709 | -114.15633 | 15485 ft | 361 kts | 121° |
| 2026-04-25 20:43 | 46.92446 | -114.12477 | 15096 ft | 357 kts | 121° |
| 2026-04-25 20:43 | 46.91202 | -114.09371 | 14903 ft | 347 kts | 121° |
| 2026-04-25 20:43 | 46.89911 | -114.06468 | 14755 ft | 331 kts | 125° |
| 2026-04-25 20:43 | 46.88673 | -114.03757 | 14601 ft | 316 kts | 124° |
| 2026-04-25 20:44 | 46.87487 | -114.01144 | 14455 ft | 299 kts | 124° |
| 2026-04-25 20:44 | 46.86372 | -113.98681 | 14382 ft | 280 kts | 125° |
| 2026-04-25 20:44 | 46.85345 | -113.96408 | 14477 ft | 258 kts | 125° |
| 2026-04-25 20:44 | 46.84379 | -113.94274 | 14444 ft | 249 kts | 125° |
| 2026-04-25 20:45 | 46.83415 | -113.92144 | 14204 ft | 252 kts | 125° |
| 2026-04-25 20:45 | 46.82444 | -113.89998 | 13931 ft | 253 kts | 125° |
| 2026-04-25 20:45 | 46.81469 | -113.87877 | 13708 ft | 252 kts | 127° |
| 2026-04-25 20:45 | 46.80354 | -113.85913 | 13362 ft | 251 kts | 136° |
| 2026-04-25 20:46 | 46.79037 | -113.84248 | 13040 ft | 249 kts | 146° |
| 2026-04-25 20:46 | 46.77572 | -113.82944 | 12771 ft | 245 kts | 155° |
| 2026-04-25 20:46 | 46.76008 | -113.82008 | 12521 ft | 241 kts | 164° |
| 2026-04-25 20:46 | 46.74404 | -113.81441 | 12259 ft | 239 kts | 173° |
| 2026-04-25 20:47 | 46.72752 | -113.81229 | 11997 ft | 237 kts | 181° |
| 2026-04-25 20:47 | 46.71111 | -113.81377 | 11721 ft | 236 kts | 189° |
| 2026-04-25 20:47 | 46.69513 | -113.81872 | 11454 ft | 234 kts | 198° |
| 2026-04-25 20:47 | 46.67997 | -113.82699 | 11190 ft | 232 kts | 206° |
| 2026-04-25 20:48 | 46.66587 | -113.83833 | 10940 ft | 232 kts | 214° |
| 2026-04-25 20:48 | 46.65311 | -113.85251 | 10679 ft | 230 kts | 223° |
| 2026-04-25 20:48 | 46.64197 | -113.86911 | 10419 ft | 229 kts | 231° |
| 2026-04-25 20:48 | 46.63262 | -113.88777 | 10149 ft | 228 kts | 239° |
| 2026-04-25 20:49 | 46.62525 | -113.90807 | 9889 ft | 227 kts | 247° |
| 2026-04-25 20:49 | 46.61998 | -113.92959 | 9669 ft | 226 kts | 255° |
| 2026-04-25 20:49 | 46.61688 | -113.95196 | 9319 ft | 225 kts | 263° |
| 2026-04-25 20:49 | 46.61642 | -113.97464 | 9022 ft | 225 kts | 274° |
| 2026-04-25 20:50 | 46.61889 | -113.99707 | 8741 ft | 224 kts | 284° |
| 2026-04-25 20:50 | 46.62413 | -114.01801 | 8497 ft | 222 kts | 295° |
| 2026-04-25 20:50 | 46.63201 | -114.03722 | 8237 ft | 221 kts | 306° |
| 2026-04-25 20:50 | 46.64223 | -114.05387 | 7983 ft | 220 kts | 317° |
| 2026-04-25 20:51 | 46.65442 | -114.06737 | 7731 ft | 221 kts | 327° |
| 2026-04-25 20:51 | 46.66818 | -114.07735 | 7478 ft | 221 kts | 338° |
| 2026-04-25 20:51 | 46.68296 | -114.08330 | 7247 ft | 219 kts | 349° |
| 2026-04-25 20:51 | 46.69788 | -114.08506 | 7029 ft | 211 kts | 360° |
| 2026-04-25 20:52 | 46.71231 | -114.08316 | 6796 ft | 205 kts | 7° |
| 2026-04-25 20:52 | 46.72146 | -114.08123 | 6688 ft | 197 kts | 7° |
| 2026-04-25 20:52 | 46.73940 | -114.07749 | 6521 ft | 193 kts | 7° |
| 2026-04-25 20:52 | 46.75265 | -114.07477 | 6427 ft | 192 kts | 7° |
| 2026-04-25 20:53 | 46.76592 | -114.07206 | 6314 ft | 192 kts | 7° |
| 2026-04-25 20:53 | 46.77883 | -114.06877 | 6158 ft | 180 kts | 19° |
| 2026-04-25 20:53 | 46.78929 | -114.06026 | 5886 ft | 165 kts | 31° |
| 2026-04-25 20:53 | 46.79866 | -114.05196 | 5749 ft | 156 kts | 31° |
| 2026-04-25 20:54 | 46.80763 | -114.04340 | 5620 ft | 153 kts | 32° |
| 2026-04-25 20:54 | 46.81645 | -114.03472 | 5461 ft | 153 kts | 33° |
| 2026-04-25 20:54 | 46.82525 | -114.02609 | 5215 ft | 152 kts | 32° |
| 2026-04-25 20:54 | 46.83412 | -114.01784 | 4970 ft | 151 kts | 27° |
| 2026-04-25 20:55 | 46.84384 | -114.01215 | 4724 ft | 150 kts | 14° |
| 2026-04-25 20:55 | 46.85409 | -114.01038 | 4575 ft | 148 kts | 359° |
| 2026-04-25 20:55 | 46.86414 | -114.01294 | 4421 ft | 148 kts | 341° |
| 2026-04-25 20:55 | 46.87340 | -114.01980 | 4268 ft | 152 kts | 324° |
| 2026-04-25 20:56 | 46.88108 | -114.03053 | 4085 ft | 153 kts | 310° |
| 2026-04-25 20:56 | 46.88762 | -114.04269 | 3858 ft | 151 kts | 309° |
| 2026-04-25 20:56 | 46.89429 | -114.05444 | 3625 ft | 150 kts | 311° |
| 2026-04-25 20:56 | 46.90116 | -114.06611 | 3429 ft | 152 kts | 311° |
| 2026-04-25 20:57 | 46.90792 | -114.07765 | 3245 ft | 151 kts | 310° |
| 2026-04-25 20:57 | 46.91401 | -114.08802 | 3203 ft | 103 kts | 311° |
| 2026-04-25 20:57 | 46.91702 | -114.09316 | 3205 ft | 31 kts | 310° |
| 2026-04-25 20:57 | 46.91779 | -114.09412 | 3203 ft | 12 kts | 358° |
| 2026-04-25 20:58 | 46.91844 | -114.09361 | 3205 ft | 9 kts | 34° |
| 2026-04-25 20:58 | 46.91889 | -114.09301 | 3202 ft | 9 kts | 72° |
| 2026-04-25 20:58 | 46.91861 | -114.09221 | 3206 ft | 10 kts | 130° |
| 2026-04-25 20:58 | 46.91814 | -114.09139 | 3206 ft | 11 kts | 130° |
| 2026-04-25 20:59 | 46.91787 | -114.09038 | 3206 ft | 12 kts | 72° |
| 2026-04-25 20:59 | 46.91842 | -114.08958 | 3206 ft | 11 kts | 40° |
| 2026-04-25 20:59 | 46.91902 | -114.08884 | 3203 ft | 11 kts | 40° |
| 2026-04-25 20:59 | 46.91938 | -114.08820 | 3206 ft | 7 kts | 81° |
| 2026-04-25 21:00 | 46.91913 | -114.08752 | 3207 ft | 8 kts | 120° |
| 2026-04-25 21:00 | 46.91910 | -114.08725 | 3205 ft | 8 kts | 85° |
| 2026-04-25 21:00 | 46.91958 | -114.08648 | 3204 ft | 0 kts | 39° |
| 2026-04-25 21:01 | 46.91966 | -114.08638 | 3203 ft | 3 kts | 39° |
| 2026-04-25 21:01 | 46.91986 | -114.08614 | 3207 ft | 5 kts | 39° |
| 2026-04-25 21:01 | 46.91994 | -114.08598 | 3204 ft | 0 kts | 86° |
| 2026-04-25 21:01 | 46.91992 | -114.08590 | 3204 ft | 1 kts | 120° |
| 2026-04-25 21:02 | 46.91978 | -114.08580 | 3201 ft | 3 kts | 153° |
| 2026-04-25 21:02 | 46.91960 | -114.08567 | 3206 ft | 0 kts | 157° |